HKNW/WIL METAR and TAF weather

Enter ICAO airport designator
Station Type Date Time Source
HKNW METAR 2020/03/28 21:00 UTC NOAA

HKNW 282100Z 27006KT 9999 BKN016 BKN070 17/16 Q1022 RERA


Station Type Date Time Source
HKNW Decoded METAR 2020/03/28 21:00 UTC NOAA

Nairobi / Wilson, Kenya (HKNW) 01-19S 036-49E 1679M
Mar 28, 2020 - 05:00 PM EDT / 2020.03.28 2100 UTC
Wind: from the W (270 degrees) at 7 MPH (6 KT):0
Visibility: greater than 7 mile(s):0
Sky conditions: mostly cloudy
Temperature: 62 F (17 C)
Dew Point: 60 F (16 C)
Relative Humidity: 93%
Pressure (altimeter): 30.18 in. Hg (1022 hPa)
ob: HKNW 282100Z 27006KT 9999 BKN016 BKN070 17/16 Q1022 RERA
cycle: 21

Station Type Date Time Source
HKNW TAF 2020/03/28 12:57 UTC NOAA

TAF HKNW 281100Z 2812/2912 07010KT 9999 FEW024CB BKN025
TEMPO 2812/2818 -SHRA FEW021CB BKN022 BKN080
BECMG 2820/2823 VRB05KT NSW BKN018 BKN080
BECMG 2908/2911 06010KT FEW024CB BKN025

Example: see airport list